Time;durP1;ratioP1;P1;durP2;ratioP2;P2;SDS_P1;SDS_P2;PMS_P1;PMS_P2;Temp;Humidity;BMP_temperature;BMP_pressure;BME280_temperature;BME280_humidity;BME280_pressure;Samples;Min_cycle;Max_cycle;Signal;HPM_P1;HPM_P2
2022/07/08 08:49:21;;;;;;;12.55;2.50;;;19.10;99.90;;;;;;5142341;23;20087;-61
2022/07/08 08:51:50;;;;;;;8.30;2.40;;;19.20;99.90;;;;;;5069655;28;20056;-61
2022/07/08 08:54:17;;;;;;;10.98;2.90;;;19.20;99.90;;;;;;5070601;28;20087;-62
2022/07/08 08:56:48;;;;;;;16.23;3.13;;;19.50;99.90;;;;;;5069881;28;20052;-62
2022/07/08 08:59:18;;;;;;;8.77;2.65;;;20.10;99.90;;;;;;5070379;28;20054;-62
2022/07/08 09:01:44;;;;;;;10.45;2.42;;;19.60;99.90;;;;;;5051687;28;20047;-62
2022/07/08 09:04:11;;;;;;;10.20;2.65;;;19.80;99.90;;;;;;5070215;28;20041;-62
2022/07/08 09:06:40;;;;;;;9.05;2.53;;;19.80;99.90;;;;;;5071361;28;20087;-62
2022/07/08 09:09:06;;;;;;;9.10;2.72;;;20.40;99.90;;;;;;5074282;28;20048;-62
2022/07/08 09:11:34;;;;;;;11.43;2.65;;;20.10;99.90;;;;;;5074016;28;20074;-62
2022/07/08 09:14:17;;;;;;;9.18;2.47;;;20.20;99.90;;;;;;5055557;28;20606;-62
2022/07/08 09:17:17;;;;;;;10.18;2.40;;;20.20;99.90;;;;;;5073707;28;20502;-62
2022/07/08 09:19:47;;;;;;;9.55;2.40;;;20.20;99.90;;;;;;5073722;28;20047;-65
2022/07/08 09:22:13;;;;;;;10.25;2.70;;;20.10;99.90;;;;;;5073658;28;20120;-63
2022/07/08 09:24:39;;;;;;;10.85;2.40;;;20.30;99.90;;;;;;5073590;28;20124;-66
2022/07/08 09:27:10;;;;;;;10.48;2.58;;;20.10;99.90;;;;;;5064691;28;20040;-63
2022/07/08 09:29:39;;;;;;;14.05;2.70;;;20.20;99.90;;;;;;5060048;28;20053;-63
2022/07/08 09:32:12;;;;;;;13.98;3.03;;;20.10;99.90;;;;;;5053974;28;20435;-62
2022/07/08 09:34:38;;;;;;;10.40;2.75;;;20.20;99.90;;;;;;5053133;28;20103;-65
2022/07/08 09:37:12;;;;;;;8.13;2.50;;;20.40;99.90;;;;;;5052730;28;20173;-63
2022/07/08 09:39:38;;;;;;;12.52;2.78;;;19.90;99.90;;;;;;5053555;28;20057;-66
2022/07/08 09:42:07;;;;;;;9.50;2.60;;;20.30;99.90;;;;;;5054040;28;20041;-62
2022/07/08 09:44:34;;;;;;;11.18;2.50;;;20.40;99.90;;;;;;5052963;28;20049;-62
2022/07/08 09:46:59;;;;;;;10.15;2.72;;;20.30;99.90;;;;;;5034763;28;20480;-63
2022/07/08 09:49:30;;;;;;;7.85;2.30;;;20.60;99.90;;;;;;5034573;28;20045;-63
2022/07/08 09:51:57;;;;;;;10.65;2.38;;;20.20;99.90;;;;;;5053870;28;20128;-63
2022/07/08 09:54:23;;;;;;;12.73;2.90;;;20.20;99.90;;;;;;5053268;28;20056;-62
2022/07/08 09:56:59;;;;;;;10.63;2.63;;;20.30;99.90;;;;;;5053366;28;20389;-64
2022/07/08 09:59:25;;;;;;;13.27;2.78;;;20.40;99.90;;;;;;5053321;28;20052;-62
2022/07/08 10:01:54;;;;;;;7.63;2.42;;;20.40;99.90;;;;;;5052920;28;20400;-62
2022/07/08 10:04:22;;;;;;;9.07;2.60;;;20.50;99.90;;;;;;5035372;28;20484;-62
2022/07/08 10:06:48;;;;;;;9.10;2.50;;;20.40;99.90;;;;;;5052716;28;20051;-62
2022/07/08 10:09:14;;;;;;;12.13;2.53;;;;;;;;;;5053135;28;20041;-62
2022/07/08 10:11:42;;;;;;;11.82;2.78;;;20.50;99.90;;;;;;5035350;28;20090;-62
2022/07/08 10:14:08;;;;;;;12.50;2.78;;;20.60;99.90;;;;;;5064855;28;20052;-62
2022/07/08 10:16:36;;;;;;;8.90;2.88;;;20.40;99.90;;;;;;5073071;28;20484;-62
2022/07/08 10:19:05;;;;;;;7.80;2.65;;;20.70;99.90;;;;;;5072400;28;20425;-62
2022/07/08 10:21:34;;;;;;;11.75;2.80;;;20.20;99.90;;;;;;5072789;28;20083;-62
2022/07/08 10:24:01;;;;;;;9.57;2.88;;;20.00;99.90;;;;;;5054658;28;20113;-62
2022/07/08 10:26:36;;;;;;;13.05;2.92;;;20.70;99.90;;;;;;5072656;28;20500;-62
2022/07/08 10:29:04;;;;;;;;;;;20.70;99.90;;;;;;5072926;28;20130;-62
2022/07/08 10:31:40;;;;;;;10.27;2.75;;;20.90;99.90;;;;;;5068747;28;19924;-63
2022/07/08 10:34:07;;;;;;;8.30;2.63;;;21.40;99.90;;;;;;5034599;28;20084;-62
2022/07/08 10:36:50;;;;;;;9.93;2.70;;;21.00;99.90;;;;;;5055375;28;20045;-62
2022/07/08 10:39:30;;;;;;;10.25;2.60;;;21.00;99.90;;;;;;5071151;28;20372;-63
2022/07/08 10:42:06;;;;;;;8.98;2.88;;;20.90;99.90;;;;;;5071359;28;20066;-63
2022/07/08 10:44:43;;;;;;;;;;;20.90;99.90;;;;;;5068080;28;20052;-62
2022/07/08 10:47:24;;;;;;;11.82;2.90;;;20.60;99.90;;;;;;5070182;28;19927;-62
2022/07/08 10:49:50;;;;;;;13.35;3.00;;;20.70;99.90;;;;;;5056808;28;20627;-63
2022/07/08 10:52:17;;;;;;;10.35;2.78;;;20.70;99.90;;;;;;5052219;28;20115;-62
2022/07/08 10:54:43;;;;;;;12.30;3.00;;;20.80;99.90;;;;;;5055900;28;20075;-62
2022/07/08 10:57:16;;;;;;;10.60;2.70;;;20.70;99.90;;;;;;5071819;28;20068;-62
2022/07/08 11:00:02;;;;;;;12.15;3.00;;;20.70;99.90;;;;;;5071706;28;20562;-62
2022/07/08 11:02:28;;;;;;;9.63;2.95;;;20.70;99.90;;;;;;5071734;28;20123;-62
2022/07/08 11:04:56;;;;;;;11.82;2.90;;;;;;;;;;5053661;28;20467;-62
2022/07/08 11:07:25;;;;;;;13.75;3.00;;;21.20;99.90;;;;;;5071735;28;20414;-63
2022/07/08 11:10:11;;;;;;;11.77;2.88;;;21.20;99.90;;;;;;5071502;28;20123;-62
2022/07/08 11:12:41;;;;;;;10.85;2.67;;;21.20;99.90;;;;;;5071339;28;20059;-62
2022/07/08 11:15:10;;;;;;;8.80;2.50;;;21.60;99.90;;;;;;5071198;28;20044;-63
2022/07/08 11:17:37;;;;;;;9.10;2.55;;;21.80;99.90;;;;;;5071469;28;20080;-62
2022/07/08 11:20:05;;;;;;;9.10;2.72;;;21.90;99.90;;;;;;5072286;28;20049;-62
2022/07/08 11:22:37;;;;;;;6.32;2.40;;;22.40;99.90;;;;;;5072347;28;20049;-63
2022/07/08 11:25:04;;;;;;;9.85;2.70;;;22.40;99.90;;;;;;5054359;28;20132;-62
2022/07/08 11:27:31;;;;;;;10.88;2.60;;;22.30;99.90;;;;;;5072026;28;20048;-65
2022/07/08 11:29:57;;;;;;;15.18;2.58;;;22.60;99.90;;;;;;5071459;28;20045;-62
2022/07/08 11:32:25;;;;;;;10.27;2.78;;;22.50;99.90;;;;;;5072035;28;20483;-62
2022/07/08 11:34:52;;;;;;;8.73;2.78;;;22.50;99.90;;;;;;5072009;28;20124;-63
2022/07/08 11:37:17;;;;;;;9.65;2.58;;;23.20;99.90;;;;;;5072565;28;20498;-63
2022/07/08 11:39:44;;;;;;;9.18;2.75;;;22.70;99.90;;;;;;5071693;28;20165;-63
2022/07/08 11:42:12;;;;;;;11.77;2.90;;;22.90;99.90;;;;;;5071915;28;20120;-63
2022/07/08 11:44:38;;;;;;;10.70;2.70;;;22.70;99.90;;;;;;5037229;28;20048;-62
2022/07/08 11:47:04;;;;;;;9.50;2.72;;;22.60;99.90;;;;;;5053989;28;20128;-62
2022/07/08 11:49:31;;;;;;;7.78;2.50;;;22.30;99.90;;;;;;5071648;28;20102;-62
2022/07/08 11:51:58;;;;;;;9.80;2.55;;;22.80;99.90;;;;;;5071682;28;20117;-62
2022/07/08 11:54:27;;;;;;;10.90;2.50;;;23.10;99.90;;;;;;5053655;28;20048;-63
2022/07/08 11:56:58;;;;;;;10.13;2.72;;;23.20;99.90;;;;;;5053956;28;20178;-63
2022/07/08 11:59:33;;;;;;;6.47;2.47;;;23.50;99.90;;;;;;5053840;28;20130;-64
2022/07/08 12:02:00;;;;;;;10.10;2.90;;;23.00;99.90;;;;;;5071770;28;20392;-62
2022/07/08 12:04:26;;;;;;;8.95;2.80;;;23.60;99.90;;;;;;5053641;28;20059;-61
2022/07/08 12:07:01;;;;;;;8.00;2.50;;;23.90;99.90;;;;;;5071254;28;20502;-63
2022/07/08 12:09:28;;;;;;;7.65;2.80;;;23.90;99.90;;;;;;5071692;28;20036;-62
2022/07/08 12:11:56;;;;;;;11.05;2.80;;;24.50;99.90;;;;;;5053690;28;20044;-62
2022/07/08 12:14:23;;;;;;;7.45;2.53;;;25.20;99.90;;;;;;5071308;28;20052;-63
2022/07/08 12:16:49;;;;;;;10.35;2.50;;;24.40;99.90;;;;;;5053364;28;20049;-63
2022/07/08 12:19:31;;;;;;;9.73;2.58;;;24.50;99.90;;;;;;5037330;28;20391;-64
2022/07/08 12:22:08;;;;;;;7.25;3.00;;;24.50;99.90;;;;;;5071313;28;20044;-63
2022/07/08 12:24:36;;;;;;;9.15;2.80;;;24.40;99.90;;;;;;5071682;28;20115;-64
2022/07/08 12:27:07;;;;;;;6.90;2.80;;;24.20;99.90;;;;;;5071437;28;20379;-66
2022/07/08 12:29:38;;;;;;;8.68;2.75;;;24.20;99.90;;;;;;5071251;28;20067;-63
2022/07/08 12:32:08;;;;;;;11.52;2.70;;;24.30;99.90;;;;;;5060434;28;20045;-63
2022/07/08 12:34:35;;;;;;;10.63;3.20;;;24.50;99.90;;;;;;5050207;28;20098;-63
2022/07/08 12:37:18;;;;;;;11.10;2.97;;;24.40;99.90;;;;;;5050941;28;20053;-63
2022/07/08 12:39:45;;;;;;;8.07;2.80;;;24.40;99.90;;;;;;5051628;28;20518;-65
2022/07/08 12:42:11;;;;;;;7.32;2.50;;;24.20;99.90;;;;;;5053605;28;20464;-64
2022/07/08 12:44:41;;;;;;;11.63;2.80;;;24.00;99.90;;;;;;5055376;28;20048;-64
2022/07/08 12:47:13;;;;;;;13.88;2.88;;;23.80;99.90;;;;;;5055156;28;20041;-62
2022/07/08 12:49:46;;;;;;;9.95;2.92;;;23.80;99.90;;;;;;5053633;28;20049;-62
2022/07/08 12:52:12;;;;;;;8.68;2.80;;;23.80;99.90;;;;;;5054686;28;20396;-63
2022/07/08 12:54:40;;;;;;;9.88;2.70;;;23.90;99.90;;;;;;5055105;28;20048;-63
2022/07/08 12:57:06;;;;;;;7.90;2.40;;;23.90;99.90;;;;;;5054805;28;20400;-63
2022/07/08 12:59:32;;;;;;;10.00;2.70;;;24.00;99.90;;;;;;5053592;28;20045;-63
2022/07/08 13:01:59;;;;;;;8.57;3.00;;;24.10;99.90;;;;;;5053752;28;20043;-63
2022/07/08 13:04:26;;;;;;;7.57;2.60;;;24.10;99.90;;;;;;5054684;28;20450;-62
2022/07/08 13:06:53;;;;;;;9.07;2.70;;;23.50;99.90;;;;;;5055124;28;20045;-63
2022/07/08 13:09:19;;;;;;;11.73;2.70;;;23.80;99.90;;;;;;5054925;28;20049;-63
2022/07/08 13:11:48;;;;;;;10.88;2.80;;;23.80;99.90;;;;;;5054727;28;20377;-63
2022/07/08 13:14:15;;;;;;;9.30;2.85;;;23.80;99.90;;;;;;5054144;28;20060;-64
2022/07/08 13:16:40;;;;;;;7.65;2.70;;;23.90;99.90;;;;;;5020841;28;20048;-63
2022/07/08 13:19:06;;;;;;;12.07;2.67;;;23.70;99.90;;;;;;5054780;28;20036;-63
2022/07/08 13:21:32;;;;;;;7.15;2.53;;;23.70;99.90;;;;;;5054652;28;20118;-63
2022/07/08 13:23:59;;;;;;;9.35;2.50;;;23.60;99.90;;;;;;5054693;28;20053;-63
2022/07/08 13:26:26;;;;;;;8.02;2.50;;;23.60;99.90;;;;;;5054068;28;20130;-63
2022/07/08 13:28:51;;;;;;;9.77;2.53;;;23.20;99.90;;;;;;5054064;28;20045;-63
2022/07/08 13:31:19;;;;;;;7.57;2.72;;;23.80;99.90;;;;;;5054558;28;20526;-63
2022/07/08 13:33:47;;;;;;;6.32;2.40;;;24.00;99.90;;;;;;5054242;28;20562;-63
2022/07/08 13:36:14;;;;;;;4.90;2.08;;;24.20;99.90;;;;;;5052863;28;20096;-63
2022/07/08 13:38:40;;;;;;;6.65;2.40;;;24.50;99.90;;;;;;5035233;28;20041;-62
2022/07/08 13:41:05;;;;;;;8.63;2.58;;;24.50;99.90;;;;;;5053687;28;20400;-63
2022/07/08 13:43:31;;;;;;;8.00;2.38;;;24.60;99.90;;;;;;5054101;28;20080;-63
2022/07/08 13:46:00;;;;;;;6.65;2.50;;;24.60;99.90;;;;;;5019776;28;20056;-62
2022/07/08 13:48:26;;;;;;;6.82;2.33;;;24.60;99.90;;;;;;5053512;28;20139;-63
2022/07/08 13:50:51;;;;;;;7.20;2.10;;;24.60;99.90;;;;;;5053641;28;20512;-63
2022/07/08 13:53:17;;;;;;;4.65;1.98;;;24.50;99.90;;;;;;5053208;28;20068;-63
2022/07/08 13:55:43;;;;;;;7.82;2.20;;;24.50;99.90;;;;;;5054006;28;20045;-63
2022/07/08 13:58:09;;;;;;;10.65;2.13;;;24.50;99.90;;;;;;5035984;28;20045;-63
2022/07/08 14:00:34;;;;;;;7.00;2.53;;;24.60;99.90;;;;;;5054204;28;20158;-63
2022/07/08 14:03:00;;;;;;;7.57;2.30;;;24.70;99.90;;;;;;5053880;28;20496;-63
2022/07/08 14:05:26;;;;;;;6.88;2.88;;;24.70;99.90;;;;;;5053913;28;20041;-62
2022/07/08 14:07:51;;;;;;;9.43;2.45;;;24.50;99.90;;;;;;5053974;28;20045;-63
2022/07/08 14:10:17;;;;;;;6.15;2.10;;;24.60;99.90;;;;;;5053691;28;20118;-63
2022/07/08 14:12:43;;;;;;;6.82;2.20;;;24.60;99.90;;;;;;5053679;28;20488;-63
2022/07/08 14:15:09;;;;;;;10.15;2.65;;;24.70;99.90;;;;;;5053635;28;20037;-63
2022/07/08 14:17:35;;;;;;;7.53;2.53;;;24.90;99.90;;;;;;5053548;28;20052;-63
2022/07/08 14:20:05;;;;;;;6.35;2.42;;;25.50;99.90;;;;;;5053913;28;20415;-62
2022/07/08 14:22:31;;;;;;;10.77;2.50;;;25.40;99.90;;;;;;5053667;28;20345;-62
2022/07/08 14:24:58;;;;;;;7.95;2.45;;;25.50;99.90;;;;;;5053384;28;20080;-63
2022/07/08 14:27:24;;;;;;;7.68;2.45;;;25.50;99.90;;;;;;5035930;28;20107;-63
2022/07/08 14:29:50;;;;;;;8.00;2.75;;;25.60;99.90;;;;;;5035461;28;20562;-63
2022/07/08 14:32:16;;;;;;;13.98;2.63;;;25.40;99.90;;;;;;5042650;28;20132;-63
2022/07/08 14:34:41;;;;;;;9.05;2.75;;;25.30;99.90;;;;;;5059823;28;20047;-63
2022/07/08 14:37:07;;;;;;;9.82;2.33;;;25.10;99.90;;;;;;5037737;28;20040;-63
2022/07/08 14:39:33;;;;;;;8.27;2.53;;;24.80;99.90;;;;;;5054121;28;20048;-63
2022/07/08 14:41:58;;;;;;;11.82;2.83;;;24.20;99.90;;;;;;5071695;28;20071;-63
2022/07/08 14:44:24;;;;;;;7.22;2.47;;;24.90;99.90;;;;;;5071784;28;20040;-63
2022/07/08 14:46:50;;;;;;;12.02;2.83;;;26.20;99.90;;;;;;5071952;28;20206;-67
2022/07/08 14:49:18;;;;;;;10.02;2.75;;;25.30;99.90;;;;;;5072041;28;20052;-63
2022/07/08 14:51:44;;;;;;;8.23;2.90;;;25.40;99.90;;;;;;5034703;28;20362;-63
2022/07/08 14:54:10;;;;;;;11.32;3.25;;;25.40;99.90;;;;;;5052087;28;20063;-63
2022/07/08 14:56:36;;;;;;;8.20;2.88;;;25.30;99.90;;;;;;5052884;28;20041;-63
2022/07/08 14:59:02;;;;;;;10.45;2.60;;;25.10;99.90;;;;;;5052105;28;20500;-63
2022/07/08 15:01:27;;;;;;;9.20;2.50;;;25.00;99.90;;;;;;5052242;28;20515;-63
2022/07/08 15:03:55;;;;;;;7.10;2.60;;;24.90;99.90;;;;;;5041612;28;20206;-64
2022/07/08 15:06:21;;;;;;;7.13;2.25;;;24.90;99.90;;;;;;5032147;28;20124;-63
2022/07/08 15:08:47;;;;;;;7.50;2.65;;;25.20;99.90;;;;;;5031806;28;20175;-64
2022/07/08 15:11:13;;;;;;;9.90;2.60;;;25.20;99.90;;;;;;5048349;28;20466;-63
2022/07/08 15:13:39;;;;;;;7.97;2.22;;;25.30;99.90;;;;;;5051669;28;20088;-64
2022/07/08 15:16:05;;;;;;;6.40;2.50;;;25.50;99.90;;;;;;5033403;28;20187;-63
2022/07/08 15:18:31;;;;;;;8.73;2.50;;;25.60;99.90;;;;;;5052491;28;20091;-64
2022/07/08 15:20:56;;;;;;;13.55;2.70;;;25.70;99.90;;;;;;5051190;28;20064;-64
2022/07/08 15:23:23;;;;;;;6.78;2.35;;;25.70;99.90;;;;;;5051568;28;20049;-64
2022/07/08 15:25:49;;;;;;;8.52;2.25;;;25.80;99.90;;;;;;5051280;28;20052;-64
2022/07/08 15:28:15;;;;;;;7.82;2.20;;;25.70;99.90;;;;;;5051740;28;20412;-64
2022/07/08 15:30:41;;;;;;;8.23;2.30;;;25.70;99.90;;;;;;5050733;28;20459;-63
2022/07/08 15:33:07;;;;;;;8.95;2.20;;;25.70;99.90;;;;;;5050761;28;20123;-63
2022/07/08 15:35:34;;;;;;;8.07;2.42;;;25.50;99.90;;;;;;5050564;28;20057;-64
2022/07/08 15:38:00;;;;;;;9.30;2.20;;;25.40;99.90;;;;;;5051551;28;20322;-63
2022/07/08 15:40:26;;;;;;;7.40;2.22;;;25.10;99.90;;;;;;5051467;28;20217;-64
2022/07/08 15:42:52;;;;;;;7.97;2.42;;;24.90;99.90;;;;;;5016841;28;20119;-64
2022/07/08 15:45:20;;;;;;;6.07;2.20;;;24.90;99.90;;;;;;5051192;28;20453;-64
2022/07/08 15:47:45;;;;;;;10.65;2.83;;;24.70;99.90;;;;;;5051062;28;20053;-64
2022/07/08 15:50:11;;;;;;;7.88;2.35;;;25.10;99.90;;;;;;5050898;28;20045;-64
2022/07/08 15:52:37;;;;;;;8.82;2.50;;;24.80;99.90;;;;;;5050717;28;20564;-64
2022/07/08 15:55:05;;;;;;;6.82;2.20;;;23.80;99.90;;;;;;5050957;28;20380;-64
2022/07/08 15:57:34;;;;;;;4.28;1.90;;;24.80;99.90;;;;;;5051243;28;20093;-64
2022/07/08 16:00:01;;;;;;;6.63;2.30;;;24.80;99.90;;;;;;5050874;28;20051;-64
2022/07/08 16:02:27;;;;;;;9.95;2.40;;;24.90;99.90;;;;;;5050515;28;20049;-64
2022/07/08 16:04:52;;;;;;;9.20;2.42;;;24.00;99.90;;;;;;5050509;28;20056;-64
2022/07/08 16:07:18;;;;;;;7.03;2.15;;;24.70;99.90;;;;;;5050340;28;20124;-64
2022/07/08 16:09:44;;;;;;;8.50;2.10;;;24.60;99.90;;;;;;5050671;28;20546;-66
2022/07/08 16:12:09;;;;;;;6.90;2.30;;;24.50;99.90;;;;;;5050838;28;20503;-64
2022/07/08 16:14:35;;;;;;;6.78;2.40;;;24.50;99.90;;;;;;5050832;28;20040;-65
2022/07/08 16:17:01;;;;;;;8.27;2.10;;;24.40;99.90;;;;;;5032020;28;20045;-63
2022/07/08 16:19:26;;;;;;;5.35;2.00;;;23.90;99.90;;;;;;5051600;28;20092;-64
2022/07/08 16:21:52;;;;;;;5.45;2.05;;;24.40;99.90;;;;;;5049996;28;20057;-63
2022/07/08 16:24:18;;;;;;;5.43;2.10;;;24.40;99.90;;;;;;5050544;28;20044;-64
2022/07/08 16:26:43;;;;;;;8.88;2.40;;;24.60;99.90;;;;;;5050225;28;20048;-66
2022/07/08 16:29:09;;;;;;;8.07;2.38;;;24.60;99.90;;;;;;5033207;28;20095;-63
2022/07/08 16:31:35;;;;;;;8.15;2.15;;;24.70;99.90;;;;;;5050321;28;20055;-63
2022/07/08 16:34:00;;;;;;;6.28;1.90;;;24.70;99.90;;;;;;5050685;28;20036;-63
2022/07/08 16:36:29;;;;;;;7.93;2.20;;;24.50;99.90;;;;;;5050188;28;20052;-63
2022/07/08 16:38:55;;;;;;;7.03;2.10;;;24.40;99.90;;;;;;5050082;28;20048;-64
2022/07/08 16:41:21;;;;;;;7.03;2.30;;;24.60;99.90;;;;;;5050421;28;20500;-63
2022/07/08 16:43:47;;;;;;;8.88;2.30;;;24.60;99.90;;;;;;5049966;28;20080;-64
2022/07/08 16:46:13;;;;;;;9.43;2.90;;;24.70;99.90;;;;;;5049985;28;20048;-64
2022/07/08 16:48:38;;;;;;;8.25;2.72;;;24.70;99.90;;;;;;5051215;28;20103;-64
2022/07/08 16:51:04;;;;;;;7.38;3.10;;;24.70;99.90;;;;;;5050464;28;20053;-64
2022/07/08 16:53:30;;;;;;;9.27;2.70;;;24.70;99.90;;;;;;5051186;28;20068;-63
2022/07/08 16:55:56;;;;;;;7.22;2.40;;;23.60;99.90;;;;;;5051042;28;20425;-64
2022/07/08 16:58:21;;;;;;;10.50;2.50;;;24.60;99.90;;;;;;5051200;28;20111;-63
2022/07/08 17:00:47;;;;;;;7.70;2.25;;;24.50;99.90;;;;;;5051018;28;20542;-64
2022/07/08 17:03:13;;;;;;;7.65;2.38;;;24.50;99.90;;;;;;5050718;28;20092;-63
2022/07/08 17:05:39;;;;;;;8.07;2.38;;;24.50;99.90;;;;;;5050638;28;20084;-63
2022/07/08 17:08:05;;;;;;;5.72;2.10;;;24.40;99.90;;;;;;5050953;28;20599;-64
2022/07/08 17:10:31;;;;;;;8.27;2.60;;;24.30;99.90;;;;;;5050855;28;20049;-64
2022/07/08 17:12:57;;;;;;;7.97;2.53;;;24.30;99.90;;;;;;5050878;28;20348;-64
2022/07/08 17:15:23;;;;;;;8.10;2.30;;;24.20;99.90;;;;;;5050848;28;20037;-64
2022/07/08 17:17:50;;;;;;;10.70;2.10;;;24.10;99.90;;;;;;5050685;28;20099;-64
2022/07/08 17:20:16;;;;;;;7.20;2.35;;;24.20;99.90;;;;;;5050989;28;20360;-64
2022/07/08 17:22:42;;;;;;;8.10;2.42;;;24.70;99.90;;;;;;5050700;28;20132;-63
2022/07/08 17:25:09;;;;;;;7.25;2.30;;;23.90;99.90;;;;;;5050768;28;20532;-64
2022/07/08 17:27:35;;;;;;;8.02;2.47;;;24.00;99.90;;;;;;5052091;28;20045;-63
2022/07/08 17:30:03;;;;;;;9.60;2.80;;;23.90;99.90;;;;;;5054994;28;20048;-63
2022/07/08 17:32:29;;;;;;;7.68;2.38;;;23.80;99.90;;;;;;5054149;28;20049;-63
2022/07/08 17:34:56;;;;;;;7.03;2.47;;;23.60;99.90;;;;;;5054418;28;20492;-63
2022/07/08 17:37:23;;;;;;;6.43;2.33;;;23.70;99.90;;;;;;5036483;28;20059;-64
2022/07/08 17:39:50;;;;;;;7.97;2.25;;;23.60;99.90;;;;;;5036652;28;20052;-64
2022/07/08 17:42:18;;;;;;;7.82;2.22;;;23.60;99.90;;;;;;5054229;28;20159;-64
2022/07/08 17:44:44;;;;;;;8.18;2.33;;;23.40;99.90;;;;;;5054290;28;20037;-65
2022/07/08 17:47:10;;;;;;;9.88;2.30;;;23.30;99.90;;;;;;5054067;28;20388;-64
2022/07/08 17:49:36;;;;;;;4.88;2.20;;;24.30;99.90;;;;;;5036150;28;20053;-63
2022/07/08 17:52:03;;;;;;;7.78;2.10;;;23.00;99.90;;;;;;5053357;28;20045;-64
2022/07/08 17:54:28;;;;;;;6.55;2.20;;;23.00;99.90;;;;;;5054024;28;20087;-63
2022/07/08 17:56:55;;;;;;;7.60;2.25;;;23.60;99.90;;;;;;5053518;28;20045;-64
2022/07/08 17:59:21;;;;;;;8.43;2.33;;;23.60;99.90;;;;;;5053814;28;20127;-64
2022/07/08 18:01:47;;;;;;;8.52;2.60;;;22.70;99.90;;;;;;5053830;28;20052;-64
2022/07/08 18:04:14;;;;;;;10.38;2.67;;;22.60;99.90;;;;;;5053761;28;20052;-65
2022/07/08 18:06:41;;;;;;;9.63;2.53;;;22.60;99.90;;;;;;5053922;28;20091;-64
2022/07/08 18:09:08;;;;;;;10.23;3.00;;;22.50;99.90;;;;;;5035778;28;20491;-64
2022/07/08 18:11:34;;;;;;;8.73;3.20;;;22.70;99.90;;;;;;5054183;28;20400;-63
2022/07/08 18:14:00;;;;;;;8.05;3.10;;;22.30;99.90;;;;;;5053547;28;20049;-64
2022/07/08 18:16:25;;;;;;;12.55;4.68;;;22.20;99.90;;;;;;5052107;28;20051;-64
2022/07/08 18:18:51;;;;;;;9.32;4.03;;;22.00;99.90;;;;;;5053210;28;20116;-63
2022/07/08 18:21:17;;;;;;;14.85;5.47;;;22.20;99.90;;;;;;5053777;28;20526;-64
2022/07/08 18:23:42;;;;;;;14.18;6.25;;;22.10;99.90;;;;;;5053540;28;20415;-63
2022/07/08 18:26:10;;;;;;;11.23;4.70;;;23.00;99.90;;;;;;5053142;28;20134;-63
2022/07/08 18:28:36;;;;;;;8.68;2.95;;;22.00;99.90;;;;;;5053425;28;20500;-63
2022/07/08 18:31:03;;;;;;;6.93;2.60;;;22.00;99.90;;;;;;5053266;28;20176;-63
2022/07/08 18:33:29;;;;;;;9.02;2.42;;;21.90;99.90;;;;;;5053247;28;20086;-63
2022/07/08 18:35:55;;;;;;;8.10;2.60;;;21.70;99.90;;;;;;5053133;28;20052;-63
2022/07/08 18:38:21;;;;;;;7.25;2.55;;;21.80;99.90;;;;;;5052855;28;20384;-63
2022/07/08 18:40:47;;;;;;;4.20;2.20;;;21.70;99.90;;;;;;5052631;28;20136;-63
2022/07/08 18:43:13;;;;;;;4.78;2.17;;;21.40;99.90;;;;;;5035347;28;20119;-64
2022/07/08 18:45:38;;;;;;;7.82;2.45;;;21.70;99.90;;;;;;5052890;28;20041;-64
2022/07/08 18:48:04;;;;;;;6.88;2.10;;;21.70;99.90;;;;;;5053051;28;20048;-64
2022/07/08 18:50:30;;;;;;;7.75;2.28;;;21.60;99.90;;;;;;5053041;28;20052;-64
2022/07/08 18:52:57;;;;;;;9.43;2.78;;;21.60;99.90;;;;;;5053009;28;20053;-63
2022/07/08 18:55:23;;;;;;;9.40;2.38;;;21.50;99.90;;;;;;5052911;28;20045;-64
2022/07/08 18:57:49;;;;;;;5.47;2.33;;;21.50;99.90;;;;;;5052946;28;20120;-64
2022/07/08 19:00:14;;;;;;;7.70;2.30;;;21.60;99.90;;;;;;5034584;28;20531;-64
2022/07/08 19:02:41;;;;;;;6.45;2.50;;;21.20;99.90;;;;;;5053172;28;20041;-64
2022/07/08 19:05:07;;;;;;;8.23;2.50;;;21.70;99.90;;;;;;5052859;28;20122;-64
2022/07/08 19:07:33;;;;;;;7.50;2.20;;;21.20;99.90;;;;;;5052572;28;20056;-64
2022/07/08 19:09:58;;;;;;;12.93;3.10;;;21.10;99.90;;;;;;5052229;28;20053;-64
2022/07/08 19:12:24;;;;;;;6.10;2.50;;;21.10;99.90;;;;;;5052765;28;20056;-64
2022/07/08 19:14:50;;;;;;;7.65;2.38;;;21.10;99.90;;;;;;5034655;28;20514;-64
2022/07/08 19:17:15;;;;;;;10.05;2.80;;;21.00;99.90;;;;;;5052417;28;20041;-64
2022/07/08 19:19:42;;;;;;;6.88;2.50;;;21.00;99.90;;;;;;5034679;28;20049;-64
2022/07/08 19:22:09;;;;;;;6.50;2.55;;;21.20;99.90;;;;;;5052636;28;20411;-64
2022/07/08 19:24:35;;;;;;;9.77;2.53;;;20.70;99.90;;;;;;5052261;28;20099;-64
2022/07/08 19:27:01;;;;;;;6.80;2.50;;;20.20;99.90;;;;;;5052043;28;20041;-64
2022/07/08 19:29:27;;;;;;;6.00;2.47;;;20.40;99.90;;;;;;5052482;28;20045;-64
2022/07/08 19:31:52;;;;;;;8.30;2.50;;;20.70;99.90;;;;;;5052568;28;20514;-65
2022/07/08 19:34:18;;;;;;;8.88;2.60;;;20.50;99.90;;;;;;5052174;28;20052;-63
2022/07/08 19:36:44;;;;;;;9.38;3.00;;;20.50;99.90;;;;;;5051987;28;20380;-63
2022/07/08 19:39:09;;;;;;;6.95;2.75;;;20.40;99.90;;;;;;5034581;28;20045;-63
2022/07/08 19:41:35;;;;;;;9.70;2.65;;;19.60;99.90;;;;;;5014436;28;20053;-63
2022/07/08 19:44:01;;;;;;;6.97;2.80;;;20.60;99.90;;;;;;5032276;28;20045;-63
2022/07/08 19:46:27;;;;;;;5.85;2.50;;;;;;;;;;5014347;28;20382;-63
2022/07/08 19:48:52;;;;;;;6.13;2.65;;;20.20;99.90;;;;;;5014058;28;20053;-63
2022/07/08 19:51:18;;;;;;;6.68;2.60;;;19.90;99.90;;;;;;5044938;28;20115;-64
2022/07/08 19:53:44;;;;;;;8.15;2.90;;;19.90;99.90;;;;;;5051471;28;20041;-64
2022/07/08 19:56:09;;;;;;;6.55;2.55;;;19.90;99.90;;;;;;5033909;28;20546;-64
2022/07/08 19:58:37;;;;;;;7.30;2.75;;;19.90;99.90;;;;;;5033683;28;20392;-65
2022/07/08 20:01:05;;;;;;;6.25;2.50;;;19.60;99.90;;;;;;5051921;28;20357;-64
2022/07/08 20:03:34;;;;;;;8.63;2.60;;;19.70;99.90;;;;;;5051754;28;20233;-64
2022/07/08 20:06:00;;;;;;;8.43;2.75;;;19.70;99.90;;;;;;5054655;28;20044;-63
2022/07/08 20:08:26;;;;;;;7.50;3.00;;;20.10;99.90;;;;;;5067721;28;20075;-64
2022/07/08 20:10:51;;;;;;;7.30;2.60;;;19.30;99.90;;;;;;5070783;28;20135;-63
2022/07/08 20:13:17;;;;;;;8.35;3.30;;;;;;;;;;5053918;28;20045;-65
2022/07/08 20:15:43;;;;;;;8.48;2.65;;;19.60;99.90;;;;;;5051357;28;20429;-64
2022/07/08 20:18:09;;;;;;;8.48;2.90;;;19.10;99.90;;;;;;5051405;28;20124;-67
2022/07/08 20:20:34;;;;;;;7.18;2.85;;;19.10;99.90;;;;;;5051217;28;20075;-64
2022/07/08 20:23:00;;;;;;;6.13;2.78;;;18.90;99.90;;;;;;5051549;28;20044;-65
2022/07/08 20:25:26;;;;;;;9.40;3.00;;;19.20;99.90;;;;;;5051181;28;20051;-64
2022/07/08 20:27:52;;;;;;;7.18;2.75;;;19.50;99.90;;;;;;5016874;28;20045;-64
2022/07/08 20:30:20;;;;;;;8.15;2.80;;;19.10;99.90;;;;;;5051020;28;20084;-64
2022/07/08 20:32:45;;;;;;;8.45;2.72;;;18.90;99.90;;;;;;5051506;28;20466;-63
2022/07/08 20:35:12;;;;;;;8.38;2.72;;;19.50;99.90;;;;;;5051225;28;20128;-64
2022/07/08 20:37:40;;;;;;;11.52;3.47;;;18.80;99.90;;;;;;5051084;28;20037;-63
2022/07/08 20:40:10;;;;;;;11.85;4.10;;;18.30;99.90;;;;;;5061401;28;20529;-64
2022/07/08 20:42:41;;;;;;;14.93;5.20;;;18.80;99.90;;;;;;5055062;28;20528;-63
2022/07/08 20:45:15;;;;;;;14.18;5.38;;;18.50;99.90;;;;;;5051204;28;20060;-64
2022/07/08 20:47:41;;;;;;;16.30;6.60;;;18.50;99.90;;;;;;5051322;28;20041;-64
2022/07/08 20:50:08;;;;;;;18.00;6.80;;;18.90;99.90;;;;;;5032928;28;20041;-64
2022/07/08 20:52:34;;;;;;;22.20;6.82;;;18.60;99.90;;;;;;5050960;28;20057;-64
2022/07/08 20:55:00;;;;;;;28.98;9.45;;;18.60;99.90;;;;;;5051177;28;20045;-64
2022/07/08 20:57:27;;;;;;;21.35;7.80;;;18.70;99.90;;;;;;5051370;28;20126;-64
2022/07/08 20:59:53;;;;;;;15.30;6.25;;;18.40;99.90;;;;;;5051126;28;20091;-64
2022/07/08 21:02:19;;;;;;;14.15;5.25;;;19.10;99.90;;;;;;5016978;28;20059;-64
2022/07/08 21:04:46;;;;;;;11.43;4.60;;;18.50;99.90;;;;;;5055536;28;20045;-63
2022/07/08 21:07:14;;;;;;;13.90;4.10;;;18.70;99.90;;;;;;5053863;28;20567;-62
2022/07/08 21:09:40;;;;;;;13.55;4.75;;;18.50;99.90;;;;;;5054760;28;20045;-62
2022/07/08 21:12:06;;;;;;;14.95;5.28;;;18.50;99.90;;;;;;5054949;28;20059;-62
2022/07/08 21:14:32;;;;;;;15.10;5.35;;;18.50;99.90;;;;;;5055198;28;20047;-63
2022/07/08 21:16:58;;;;;;;11.35;5.10;;;18.20;99.90;;;;;;5036954;28;20447;-62
2022/07/08 21:19:24;;;;;;;14.25;5.45;;;18.30;99.90;;;;;;5054763;28;20064;-62
2022/07/08 21:21:53;;;;;;;12.10;5.20;;;18.20;99.90;;;;;;5054540;28;20194;-62
2022/07/08 21:24:24;;;;;;;9.77;4.63;;;;;;;;;;5054892;28;20143;-63
2022/07/08 21:26:50;;;;;;;11.80;4.57;;;18.40;99.90;;;;;;5055026;28;20049;-62
2022/07/08 21:29:16;;;;;;;10.10;3.97;;;17.80;99.90;;;;;;5054518;28;20590;-63
2022/07/08 21:31:41;;;;;;;9.23;3.90;;;17.60;99.90;;;;;;5054300;28;20135;-62
2022/07/08 21:34:07;;;;;;;10.15;3.97;;;17.90;99.90;;;;;;5054453;28;20083;-62